sensor_id;sensor_type;location;lat;lon;timestamp;pressure;altitude;pressure_sealevel;temperature;humidity
76766;BME280;65707;52.362;6.588;2023-12-20T00:00:59;101482.28;;;7.03;94.36
76766;BME280;65707;52.362;6.588;2023-12-20T00:03:25;101482.16;;;7.05;94.19
76766;BME280;65707;52.362;6.588;2023-12-20T00:05:52;101485.78;;;7.04;93.69
76766;BME280;65707;52.362;6.588;2023-12-20T00:08:20;101475.50;;;6.99;93.36
76766;BME280;65707;52.362;6.588;2023-12-20T00:10:47;101470.56;;;6.95;93.49
76766;BME280;65707;52.362;6.588;2023-12-20T00:13:17;101471.28;;;6.97;93.53
76766;BME280;65707;52.362;6.588;2023-12-20T00:15:43;101475.75;;;6.96;92.91
76766;BME280;65707;52.362;6.588;2023-12-20T00:18:10;101473.88;;;6.87;93.38
76766;BME280;65707;52.362;6.588;2023-12-20T00:20:36;101472.06;;;6.88;93.16
76766;BME280;65707;52.362;6.588;2023-12-20T00:23:03;101472.75;;;6.90;93.01
76766;BME280;65707;52.362;6.588;2023-12-20T00:25:31;101479.53;;;6.94;93.35
76766;BME280;65707;52.362;6.588;2023-12-20T00:27:59;101481.34;;;6.93;93.19
76766;BME280;65707;52.362;6.588;2023-12-20T00:30:26;101461.47;;;6.97;92.94
76766;BME280;65707;52.362;6.588;2023-12-20T00:32:53;101456.41;;;6.94;92.53
76766;BME280;65707;52.362;6.588;2023-12-20T00:35:20;101461.97;;;6.91;92.60
76766;BME280;65707;52.362;6.588;2023-12-20T00:37:46;101454.94;;;6.90;92.43
76766;BME280;65707;52.362;6.588;2023-12-20T00:40:13;101455.72;;;6.81;92.59
76766;BME280;65707;52.362;6.588;2023-12-20T00:42:41;101459.00;;;6.85;92.23
76766;BME280;65707;52.362;6.588;2023-12-20T00:45:08;101462.75;;;6.82;92.55
76766;BME280;65707;52.362;6.588;2023-12-20T00:47:35;101465.94;;;6.76;92.47
76766;BME280;65707;52.362;6.588;2023-12-20T00:50:02;101459.06;;;6.74;92.15
76766;BME280;65707;52.362;6.588;2023-12-20T00:52:29;101462.16;;;6.79;92.27
76766;BME280;65707;52.362;6.588;2023-12-20T00:54:56;101458.06;;;6.75;92.19
76766;BME280;65707;52.362;6.588;2023-12-20T00:57:23;101452.47;;;6.78;92.39
76766;BME280;65707;52.362;6.588;2023-12-20T00:59:52;101450.19;;;6.73;92.00
76766;BME280;65707;52.362;6.588;2023-12-20T01:02:18;101452.78;;;6.64;92.27
76766;BME280;65707;52.362;6.588;2023-12-20T01:04:45;101454.84;;;6.60;91.97
76766;BME280;65707;52.362;6.588;2023-12-20T01:07:12;101454.97;;;6.59;92.27
76766;BME280;65707;52.362;6.588;2023-12-20T01:09:38;101450.25;;;6.62;92.01
76766;BME280;65707;52.362;6.588;2023-12-20T01:12:05;101460.84;;;6.53;92.03
76766;BME280;65707;52.362;6.588;2023-12-20T01:14:32;101463.75;;;6.50;92.10
76766;BME280;65707;52.362;6.588;2023-12-20T01:17:01;101461.44;;;6.56;92.14
76766;BME280;65707;52.362;6.588;2023-12-20T01:19:28;101465.31;;;6.52;92.23
76766;BME280;65707;52.362;6.588;2023-12-20T01:21:55;101464.47;;;6.52;91.83
76766;BME280;65707;52.362;6.588;2023-12-20T01:24:22;101464.75;;;6.49;92.25
76766;BME280;65707;52.362;6.588;2023-12-20T01:26:48;101464.59;;;6.50;92.40
76766;BME280;65707;52.362;6.588;2023-12-20T01:29:15;101459.88;;;6.43;91.78
76766;BME280;65707;52.362;6.588;2023-12-20T01:31:42;101454.34;;;6.46;91.88
76766;BME280;65707;52.362;6.588;2023-12-20T01:34:10;101458.28;;;6.51;92.13
76766;BME280;65707;52.362;6.588;2023-12-20T01:36:36;101459.53;;;6.47;92.20
76766;BME280;65707;52.362;6.588;2023-12-20T01:39:03;101461.44;;;6.56;92.42
76766;BME280;65707;52.362;6.588;2023-12-20T01:41:30;101458.91;;;6.55;92.86
76766;BME280;65707;52.362;6.588;2023-12-20T01:43:56;101456.22;;;6.55;91.76
76766;BME280;65707;52.362;6.588;2023-12-20T01:46:24;101467.66;;;6.66;91.78
76766;BME280;65707;52.362;6.588;2023-12-20T01:48:51;101451.78;;;6.65;91.54
76766;BME280;65707;52.362;6.588;2023-12-20T01:51:20;101461.50;;;6.66;92.11
76766;BME280;65707;52.362;6.588;2023-12-20T01:53:48;101459.06;;;6.74;91.45
76766;BME280;65707;52.362;6.588;2023-12-20T01:56:16;101456.25;;;6.75;91.49
76766;BME280;65707;52.362;6.588;2023-12-20T01:58:44;101460.84;;;6.73;91.27
76766;BME280;65707;52.362;6.588;2023-12-20T02:01:12;101454.66;;;6.73;91.12
76766;BME280;65707;52.362;6.588;2023-12-20T02:03:40;101451.09;;;6.63;90.47
76766;BME280;65707;52.362;6.588;2023-12-20T02:06:07;101457.00;;;6.66;90.39
76766;BME280;65707;52.362;6.588;2023-12-20T02:08:36;101454.34;;;6.66;90.08
76766;BME280;65707;52.362;6.588;2023-12-20T02:11:03;101454.19;;;6.68;90.22
76766;BME280;65707;52.362;6.588;2023-12-20T02:13:30;101446.22;;;6.68;89.91
76766;BME280;65707;52.362;6.588;2023-12-20T02:15:57;101440.44;;;6.63;90.52
76766;BME280;65707;52.362;6.588;2023-12-20T02:18:24;101450.47;;;6.70;90.22
76766;BME280;65707;52.362;6.588;2023-12-20T02:20:50;101434.84;;;6.66;90.71
76766;BME280;65707;52.362;6.588;2023-12-20T02:23:18;101442.91;;;6.55;90.89
76766;BME280;65707;52.362;6.588;2023-12-20T02:25:44;101444.31;;;6.59;91.41
76766;BME280;65707;52.362;6.588;2023-12-20T02:28:11;101430.25;;;6.57;91.43
76766;BME280;65707;52.362;6.588;2023-12-20T02:30:38;101415.00;;;6.59;91.70
76766;BME280;65707;52.362;6.588;2023-12-20T02:33:07;101424.19;;;6.66;91.85
76766;BME280;65707;52.362;6.588;2023-12-20T02:35:37;101421.50;;;6.66;90.98
76766;BME280;65707;52.362;6.588;2023-12-20T02:38:04;101419.09;;;6.63;91.54
76766;BME280;65707;52.362;6.588;2023-12-20T02:40:32;101413.50;;;6.66;91.34
76766;BME280;65707;52.362;6.588;2023-12-20T02:42:59;101403.44;;;6.69;90.29
76766;BME280;65707;52.362;6.588;2023-12-20T02:45:26;101417.72;;;6.68;91.01
76766;BME280;65707;52.362;6.588;2023-12-20T02:47:53;101422.84;;;6.60;91.60
76766;BME280;65707;52.362;6.588;2023-12-20T02:50:19;101422.03;;;6.60;91.68
76766;BME280;65707;52.362;6.588;2023-12-20T02:52:46;101424.50;;;6.72;91.35
76766;BME280;65707;52.362;6.588;2023-12-20T02:55:13;101416.78;;;6.69;90.81
76766;BME280;65707;52.362;6.588;2023-12-20T02:57:41;101405.00;;;6.72;90.91
76766;BME280;65707;52.362;6.588;2023-12-20T03:00:09;101399.38;;;6.75;91.23
76766;BME280;65707;52.362;6.588;2023-12-20T03:02:37;101398.81;;;6.71;90.76
76766;BME280;65707;52.362;6.588;2023-12-20T03:05:04;101389.72;;;6.74;90.90
76766;BME280;65707;52.362;6.588;2023-12-20T03:07:31;101400.66;;;6.71;90.71
76766;BME280;65707;52.362;6.588;2023-12-20T03:09:58;101392.66;;;6.71;91.11
76766;BME280;65707;52.362;6.588;2023-12-20T03:12:25;101388.00;;;6.73;91.56
76766;BME280;65707;52.362;6.588;2023-12-20T03:14:53;101392.94;;;6.77;90.76
76766;BME280;65707;52.362;6.588;2023-12-20T03:17:23;101387.75;;;6.76;90.89
76766;BME280;65707;52.362;6.588;2023-12-20T03:19:49;101386.78;;;6.77;90.61
76766;BME280;65707;52.362;6.588;2023-12-20T03:22:16;101397.44;;;6.77;90.69
76766;BME280;65707;52.362;6.588;2023-12-20T03:24:46;101392.81;;;6.79;90.32
76766;BME280;65707;52.362;6.588;2023-12-20T03:27:13;101388.25;;;6.90;90.06
76766;BME280;65707;52.362;6.588;2023-12-20T03:29:39;101384.03;;;6.88;89.97
76766;BME280;65707;52.362;6.588;2023-12-20T03:32:07;101383.66;;;6.92;90.49
76766;BME280;65707;52.362;6.588;2023-12-20T03:34:34;101381.03;;;7.02;90.41
76766;BME280;65707;52.362;6.588;2023-12-20T03:37:03;101383.56;;;7.03;90.15
76766;BME280;65707;52.362;6.588;2023-12-20T03:39:30;101379.50;;;7.09;89.32
76766;BME280;65707;52.362;6.588;2023-12-20T03:41:56;101377.28;;;7.14;89.45
76766;BME280;65707;52.362;6.588;2023-12-20T03:44:23;101368.44;;;7.13;89.39
76766;BME280;65707;52.362;6.588;2023-12-20T03:46:55;101380.13;;;7.22;89.31
76766;BME280;65707;52.362;6.588;2023-12-20T03:49:23;101387.41;;;7.20;89.06
76766;BME280;65707;52.362;6.588;2023-12-20T03:51:51;101387.56;;;7.18;89.55
76766;BME280;65707;52.362;6.588;2023-12-20T03:54:17;101384.16;;;7.16;89.61
76766;BME280;65707;52.362;6.588;2023-12-20T03:56:44;101375.53;;;7.24;88.89
76766;BME280;65707;52.362;6.588;2023-12-20T03:59:10;101386.75;;;7.27;88.87
76766;BME280;65707;52.362;6.588;2023-12-20T04:01:37;101382.72;;;7.33;88.20
76766;BME280;65707;52.362;6.588;2023-12-20T04:04:04;101383.56;;;7.33;88.33
76766;BME280;65707;52.362;6.588;2023-12-20T04:06:32;101372.03;;;7.33;88.51
76766;BME280;65707;52.362;6.588;2023-12-20T04:09:01;101378.19;;;7.24;88.84
76766;BME280;65707;52.362;6.588;2023-12-20T04:11:27;101386.28;;;7.43;87.79
76766;BME280;65707;52.362;6.588;2023-12-20T04:13:54;101383.84;;;7.40;88.05
76766;BME280;65707;52.362;6.588;2023-12-20T04:16:21;101383.75;;;7.41;87.80
76766;BME280;65707;52.362;6.588;2023-12-20T04:18:47;101390.44;;;7.36;88.24
76766;BME280;65707;52.362;6.588;2023-12-20T04:21:16;101380.50;;;7.38;87.87
76766;BME280;65707;52.362;6.588;2023-12-20T04:23:44;101373.03;;;7.32;88.20
76766;BME280;65707;52.362;6.588;2023-12-20T04:26:11;101374.56;;;7.34;87.92
76766;BME280;65707;52.362;6.588;2023-12-20T04:28:37;101373.56;;;7.35;88.31
76766;BME280;65707;52.362;6.588;2023-12-20T04:31:04;101371.81;;;7.45;87.51
76766;BME280;65707;52.362;6.588;2023-12-20T04:33:31;101372.81;;;7.54;87.29
76766;BME280;65707;52.362;6.588;2023-12-20T04:35:57;101368.16;;;7.56;87.12
76766;BME280;65707;52.362;6.588;2023-12-20T04:38:25;101355.22;;;7.51;87.06
76766;BME280;65707;52.362;6.588;2023-12-20T04:40:57;101346.78;;;7.46;87.11
76766;BME280;65707;52.362;6.588;2023-12-20T04:43:24;101348.63;;;7.46;87.69
76766;BME280;65707;52.362;6.588;2023-12-20T04:45:50;101348.19;;;7.41;87.33
76766;BME280;65707;52.362;6.588;2023-12-20T04:48:18;101359.41;;;7.35;87.33
76766;BME280;65707;52.362;6.588;2023-12-20T04:50:45;101356.75;;;7.35;87.54
76766;BME280;65707;52.362;6.588;2023-12-20T04:53:11;101365.13;;;7.21;87.68
76766;BME280;65707;52.362;6.588;2023-12-20T04:55:38;101360.47;;;7.23;87.66
76766;BME280;65707;52.362;6.588;2023-12-20T04:58:06;101359.91;;;7.19;88.03
76766;BME280;65707;52.362;6.588;2023-12-20T05:00:33;101368.91;;;7.28;87.90
76766;BME280;65707;52.362;6.588;2023-12-20T05:02:59;101360.38;;;7.34;88.39
76766;BME280;65707;52.362;6.588;2023-12-20T05:05:26;101356.75;;;7.35;88.10
76766;BME280;65707;52.362;6.588;2023-12-20T05:07:53;101353.25;;;7.44;87.53
76766;BME280;65707;52.362;6.588;2023-12-20T05:10:20;101335.53;;;7.52;87.28
76766;BME280;65707;52.362;6.588;2023-12-20T05:12:46;101354.38;;;7.51;87.61
76766;BME280;65707;52.362;6.588;2023-12-20T05:15:14;101342.03;;;7.50;86.66
76766;BME280;65707;52.362;6.588;2023-12-20T05:17:41;101345.38;;;7.42;87.40
76766;BME280;65707;52.362;6.588;2023-12-20T05:20:08;101350.72;;;7.42;87.35
76766;BME280;65707;52.362;6.588;2023-12-20T05:22:35;101346.38;;;7.51;86.72
76766;BME280;65707;52.362;6.588;2023-12-20T05:25:02;101345.28;;;7.53;87.14
76766;BME280;65707;52.362;6.588;2023-12-20T05:27:30;101353.44;;;7.61;86.71
76766;BME280;65707;52.362;6.588;2023-12-20T05:29:56;101345.28;;;7.63;86.69
76766;BME280;65707;52.362;6.588;2023-12-20T05:32:25;101340.78;;;7.63;86.60
76766;BME280;65707;52.362;6.588;2023-12-20T05:34:51;101315.88;;;7.44;86.02
76766;BME280;65707;52.362;6.588;2023-12-20T05:37:18;101346.81;;;7.65;86.26
76766;BME280;65707;52.362;6.588;2023-12-20T05:39:45;101331.94;;;7.63;86.67
76766;BME280;65707;52.362;6.588;2023-12-20T05:42:12;101336.59;;;7.70;86.31
76766;BME280;65707;52.362;6.588;2023-12-20T05:44:39;101331.63;;;7.56;86.33
76766;BME280;65707;52.362;6.588;2023-12-20T05:47:05;101341.91;;;7.61;86.50
76766;BME280;65707;52.362;6.588;2023-12-20T05:49:38;101351.06;;;7.58;86.23
76766;BME280;65707;52.362;6.588;2023-12-20T05:52:05;101338.78;;;7.46;86.21
76766;BME280;65707;52.362;6.588;2023-12-20T05:54:32;101338.50;;;7.49;87.04
76766;BME280;65707;52.362;6.588;2023-12-20T05:56:59;101335.94;;;7.38;87.46
76766;BME280;65707;52.362;6.588;2023-12-20T05:59:26;101338.91;;;7.45;87.01
76766;BME280;65707;52.362;6.588;2023-12-20T06:01:53;101348.19;;;7.41;87.45
76766;BME280;65707;52.362;6.588;2023-12-20T06:04:19;101349.03;;;7.51;87.24
76766;BME280;65707;52.362;6.588;2023-12-20T06:06:48;101341.19;;;7.59;86.71
76766;BME280;65707;52.362;6.588;2023-12-20T06:09:17;101335.56;;;7.62;86.00
76766;BME280;65707;52.362;6.588;2023-12-20T06:11:44;101338.00;;;7.65;85.86
76766;BME280;65707;52.362;6.588;2023-12-20T06:14:11;101344.28;;;7.64;86.31
76766;BME280;65707;52.362;6.588;2023-12-20T06:16:40;101340.38;;;7.68;85.88
76766;BME280;65707;52.362;6.588;2023-12-20T06:19:06;101332.91;;;7.71;85.55
76766;BME280;65707;52.362;6.588;2023-12-20T06:21:36;101335.88;;;7.68;86.02
76766;BME280;65707;52.362;6.588;2023-12-20T06:24:04;101333.38;;;7.86;85.22
76766;BME280;65707;52.362;6.588;2023-12-20T06:26:34;101326.50;;;7.83;85.01
76766;BME280;65707;52.362;6.588;2023-12-20T06:29:01;101322.38;;;7.79;84.60
76766;BME280;65707;52.362;6.588;2023-12-20T06:31:28;101321.81;;;7.85;84.59
76766;BME280;65707;52.362;6.588;2023-12-20T06:33:54;101329.03;;;7.85;84.75
76766;BME280;65707;52.362;6.588;2023-12-20T06:36:25;101324.63;;;7.84;85.12
76766;BME280;65707;52.362;6.588;2023-12-20T06:38:52;101324.13;;;7.90;84.87
76766;BME280;65707;52.362;6.588;2023-12-20T06:41:20;101321.56;;;7.98;84.04
76766;BME280;65707;52.362;6.588;2023-12-20T06:43:49;101318.34;;;8.04;84.12
76766;BME280;65707;52.362;6.588;2023-12-20T06:46:16;101319.59;;;8.00;84.06
76766;BME280;65707;52.362;6.588;2023-12-20T06:48:43;101318.06;;;7.98;84.54
76766;BME280;65707;52.362;6.588;2023-12-20T06:51:12;101319.59;;;8.00;83.64
76766;BME280;65707;52.362;6.588;2023-12-20T06:53:40;101316.22;;;7.98;84.62
76766;BME280;65707;52.362;6.588;2023-12-20T06:56:07;101320.16;;;8.04;84.14
76766;BME280;65707;52.362;6.588;2023-12-20T06:58:38;101315.69;;;8.04;83.94
76766;BME280;65707;52.362;6.588;2023-12-20T07:01:11;101320.16;;;8.13;83.60
76766;BME280;65707;52.362;6.588;2023-12-20T07:03:38;101311.56;;;8.19;83.27
76766;BME280;65707;52.362;6.588;2023-12-20T07:06:04;101307.22;;;8.18;83.72
76766;BME280;65707;52.362;6.588;2023-12-20T07:08:33;101300.47;;;8.14;83.16
76766;BME280;65707;52.362;6.588;2023-12-20T07:11:00;101295.97;;;8.15;83.09
76766;BME280;65707;52.362;6.588;2023-12-20T07:13:26;101292.56;;;8.22;83.44
76766;BME280;65707;52.362;6.588;2023-12-20T07:15:54;101299.34;;;8.17;83.49
76766;BME280;65707;52.362;6.588;2023-12-20T07:18:21;101287.22;;;8.22;83.03
76766;BME280;65707;52.362;6.588;2023-12-20T07:20:56;101296.13;;;8.23;82.68
76766;BME280;65707;52.362;6.588;2023-12-20T07:23:21;101300.34;;;8.25;83.22
76766;BME280;65707;52.362;6.588;2023-12-20T07:25:51;101287.84;;;8.26;83.44
76766;BME280;65707;52.362;6.588;2023-12-20T07:28:18;101294.56;;;8.30;82.53
76766;BME280;65707;52.362;6.588;2023-12-20T07:30:45;101292.56;;;8.22;83.25
76766;BME280;65707;52.362;6.588;2023-12-20T07:33:16;101285.88;;;8.28;82.67
76766;BME280;65707;52.362;6.588;2023-12-20T07:35:43;101285.56;;;8.31;82.32
76766;BME280;65707;52.362;6.588;2023-12-20T07:38:12;101293.75;;;8.29;83.04
76766;BME280;65707;52.362;6.588;2023-12-20T07:40:39;101292.03;;;8.28;82.74
76766;BME280;65707;52.362;6.588;2023-12-20T07:43:06;101291.06;;;8.29;83.16
76766;BME280;65707;52.362;6.588;2023-12-20T07:45:32;101290.06;;;8.30;83.48
76766;BME280;65707;52.362;6.588;2023-12-20T07:47:59;101285.16;;;8.35;82.34
76766;BME280;65707;52.362;6.588;2023-12-20T07:50:32;101285.94;;;8.45;82.19
76766;BME280;65707;52.362;6.588;2023-12-20T07:52:59;101284.72;;;8.40;82.28
76766;BME280;65707;52.362;6.588;2023-12-20T07:55:26;101287.09;;;8.43;82.31
76766;BME280;65707;52.362;6.588;2023-12-20T07:57:52;101255.03;;;8.24;82.93
76766;BME280;65707;52.362;6.588;2023-12-20T08:00:19;101288.78;;;8.44;82.97
76766;BME280;65707;52.362;6.588;2023-12-20T08:02:49;101293.81;;;8.47;82.71
76766;BME280;65707;52.362;6.588;2023-12-20T08:05:16;101295.81;;;8.45;82.39
76766;BME280;65707;52.362;6.588;2023-12-20T08:07:44;101296.09;;;8.51;82.45
76766;BME280;65707;52.362;6.588;2023-12-20T08:10:10;101296.38;;;8.48;82.22
76766;BME280;65707;52.362;6.588;2023-12-20T08:12:38;101304.66;;;8.45;82.94
76766;BME280;65707;52.362;6.588;2023-12-20T08:15:06;101302.13;;;8.53;82.12
76766;BME280;65707;52.362;6.588;2023-12-20T08:17:35;101303.84;;;8.54;81.77
76766;BME280;65707;52.362;6.588;2023-12-20T08:20:03;101301.84;;;8.56;81.93
76766;BME280;65707;52.362;6.588;2023-12-20T08:22:32;101306.50;;;8.54;82.20
76766;BME280;65707;52.362;6.588;2023-12-20T08:25:01;101299.31;;;8.55;82.79
76766;BME280;65707;52.362;6.588;2023-12-20T08:27:27;101297.63;;;8.54;83.03
76766;BME280;65707;52.362;6.588;2023-12-20T08:29:54;101298.34;;;8.46;83.49
76766;BME280;65707;52.362;6.588;2023-12-20T08:32:21;101290.91;;;8.50;83.35
76766;BME280;65707;52.362;6.588;2023-12-20T08:34:50;101302.56;;;8.39;83.80
76766;BME280;65707;52.362;6.588;2023-12-20T08:37:19;101301.59;;;8.40;83.94
76766;BME280;65707;52.362;6.588;2023-12-20T08:39:48;101314.56;;;8.35;85.06
76766;BME280;65707;52.362;6.588;2023-12-20T08:42:23;101302.44;;;8.31;85.06
76766;BME280;65707;52.362;6.588;2023-12-20T08:44:56;101296.00;;;8.24;85.40
76766;BME280;65707;52.362;6.588;2023-12-20T08:47:23;101298.91;;;8.21;86.18
76766;BME280;65707;52.362;6.588;2023-12-20T08:49:53;101300.50;;;8.24;85.75
76766;BME280;65707;52.362;6.588;2023-12-20T08:52:21;101302.56;;;8.20;86.46
76766;BME280;65707;52.362;6.588;2023-12-20T08:54:48;101309.22;;;8.26;86.15
76766;BME280;65707;52.362;6.588;2023-12-20T08:57:17;101293.56;;;8.21;86.40
76766;BME280;65707;52.362;6.588;2023-12-20T08:59:49;101293.31;;;8.24;86.43
76766;BME280;65707;52.362;6.588;2023-12-20T09:02:16;101305.22;;;8.20;86.55
76766;BME280;65707;52.362;6.588;2023-12-20T09:04:45;101298.94;;;8.12;87.30
76766;BME280;65707;52.362;6.588;2023-12-20T09:07:22;101291.72;;;8.12;87.48
76766;BME280;65707;52.362;6.588;2023-12-20T09:09:49;101297.66;;;8.06;88.70
76766;BME280;65707;52.362;6.588;2023-12-20T09:12:19;101312.56;;;8.09;89.07
76766;BME280;65707;52.362;6.588;2023-12-20T09:14:48;101300.75;;;8.11;88.71
76766;BME280;65707;52.362;6.588;2023-12-20T09:17:19;101302.16;;;8.06;89.01
76766;BME280;65707;52.362;6.588;2023-12-20T09:19:48;101308.06;;;8.09;89.48
76766;BME280;65707;52.362;6.588;2023-12-20T09:22:17;101299.94;;;8.01;90.27
76766;BME280;65707;52.362;6.588;2023-12-20T09:24:44;101303.84;;;8.07;89.66
76766;BME280;65707;52.362;6.588;2023-12-20T09:27:11;101301.88;;;8.18;89.55
76766;BME280;65707;52.362;6.588;2023-12-20T09:29:38;101295.00;;;8.25;89.50
76766;BME280;65707;52.362;6.588;2023-12-20T09:32:06;101291.63;;;8.23;88.97
76766;BME280;65707;52.362;6.588;2023-12-20T09:34:33;101298.22;;;8.19;89.38
76766;BME280;65707;52.362;6.588;2023-12-20T09:37:06;101276.81;;;8.19;88.81
76766;BME280;65707;52.362;6.588;2023-12-20T09:39:35;101303.03;;;8.25;89.50
76766;BME280;65707;52.362;6.588;2023-12-20T09:42:03;101300.63;;;8.32;89.58
76766;BME280;65707;52.362;6.588;2023-12-20T09:44:31;101303.03;;;8.25;89.22
76766;BME280;65707;52.362;6.588;2023-12-20T09:47:02;101301.06;;;8.27;88.92
76766;BME280;65707;52.362;6.588;2023-12-20T09:49:32;101300.75;;;8.30;90.21
76766;BME280;65707;52.362;6.588;2023-12-20T09:52:07;101305.53;;;8.36;89.26
76766;BME280;65707;52.362;6.588;2023-12-20T09:54:39;101304.13;;;8.42;89.06
76766;BME280;65707;52.362;6.588;2023-12-20T09:57:06;101302.13;;;8.44;89.00
76766;BME280;65707;52.362;6.588;2023-12-20T09:59:32;101302.41;;;8.50;88.60
76766;BME280;65707;52.362;6.588;2023-12-20T10:02:01;101308.59;;;8.60;88.61
76766;BME280;65707;52.362;6.588;2023-12-20T10:04:42;101316.75;;;8.68;88.19
76766;BME280;65707;52.362;6.588;2023-12-20T10:07:22;101309.41;;;8.70;87.00
76766;BME280;65707;52.362;6.588;2023-12-20T10:09:48;101304.47;;;8.75;87.75
76766;BME280;65707;52.362;6.588;2023-12-20T10:12:20;101310.78;;;8.84;86.72
76766;BME280;65707;52.362;6.588;2023-12-20T10:14:47;101300.34;;;9.17;87.92
76766;BME280;65707;52.362;6.588;2023-12-20T10:17:13;101312.72;;;9.28;85.80
76766;BME280;65707;52.362;6.588;2023-12-20T10:19:42;101309.03;;;9.29;86.20
76766;BME280;65707;52.362;6.588;2023-12-20T10:22:09;101303.72;;;9.47;85.49
76766;BME280;65707;52.362;6.588;2023-12-20T10:24:41;101309.13;;;9.64;85.83
76766;BME280;65707;52.362;6.588;2023-12-20T10:27:18;101308.88;;;9.58;84.40
76766;BME280;65707;52.362;6.588;2023-12-20T10:29:49;101315.59;;;9.62;84.52
76766;BME280;65707;52.362;6.588;2023-12-20T10:32:22;101304.16;;;9.69;83.73
76766;BME280;65707;52.362;6.588;2023-12-20T10:34:54;101290.31;;;9.74;84.06
76766;BME280;65707;52.362;6.588;2023-12-20T10:37:21;101298.63;;;9.88;84.24
76766;BME280;65707;52.362;6.588;2023-12-20T10:39:50;101287.75;;;9.90;82.58
76766;BME280;65707;52.362;6.588;2023-12-20T10:42:22;101291.53;;;9.97;82.61
76766;BME280;65707;52.362;6.588;2023-12-20T10:44:53;101279.31;;;10.02;82.68
76766;BME280;65707;52.362;6.588;2023-12-20T10:47:20;101277.19;;;10.06;81.60
76766;BME280;65707;52.362;6.588;2023-12-20T10:49:49;101274.50;;;10.06;81.72
76766;BME280;65707;52.362;6.588;2023-12-20T10:52:23;101270.47;;;10.02;81.24
76766;BME280;65707;52.362;6.588;2023-12-20T10:54:50;101269.00;;;9.90;81.71
76766;BME280;65707;52.362;6.588;2023-12-20T10:57:18;101262.66;;;9.73;81.97
76766;BME280;65707;52.362;6.588;2023-12-20T10:59:45;101264.69;;;9.62;82.30
76766;BME280;65707;52.362;6.588;2023-12-20T11:02:15;101263.16;;;9.41;83.53
76766;BME280;65707;52.362;6.588;2023-12-20T11:04:47;101257.31;;;9.28;84.92
76766;BME280;65707;52.362;6.588;2023-12-20T11:07:25;101262.22;;;9.33;84.54
76766;BME280;65707;52.362;6.588;2023-12-20T11:10:03;101263.97;;;9.24;84.48
76766;BME280;65707;52.362;6.588;2023-12-20T11:12:48;101268.31;;;9.25;85.39
76766;BME280;65707;52.362;6.588;2023-12-20T11:15:20;101260.19;;;9.17;85.29
76766;BME280;65707;52.362;6.588;2023-12-20T11:17:56;101252.84;;;9.19;85.21
76766;BME280;65707;52.362;6.588;2023-12-20T11:20:35;101258.06;;;9.21;86.10
76766;BME280;65707;52.362;6.588;2023-12-20T11:23:04;101259.91;;;9.20;86.28
76766;BME280;65707;52.362;6.588;2023-12-20T11:25:46;101254.25;;;9.23;85.27
76766;BME280;65707;52.362;6.588;2023-12-20T11:28:14;101295.00;;;9.17;86.84
76766;BME280;65707;52.362;6.588;2023-12-20T11:30:50;101297.44;;;8.74;83.53
76766;BME280;65707;52.362;6.588;2023-12-20T11:33:26;101279.50;;;8.00;84.34
76766;BME280;65707;52.362;6.588;2023-12-20T11:36:02;101286.69;;;7.71;86.41
76766;BME280;65707;52.362;6.588;2023-12-20T11:38:53;101281.91;;;7.55;87.80
76766;BME280;65707;52.362;6.588;2023-12-20T11:41:22;101279.06;;;7.47;88.76
76766;BME280;65707;52.362;6.588;2023-12-20T11:43:52;101273.16;;;7.44;89.89
76766;BME280;65707;52.362;6.588;2023-12-20T11:46:20;101271.88;;;7.48;89.75
76766;BME280;65707;52.362;6.588;2023-12-20T11:48:51;101273.59;;;7.49;89.65
76766;BME280;65707;52.362;6.588;2023-12-20T11:51:17;101280.75;;;7.48;90.00
76766;BME280;65707;52.362;6.588;2023-12-20T11:53:52;101279.22;;;7.46;90.77
76766;BME280;65707;52.362;6.588;2023-12-20T11:56:19;101280.31;;;7.53;91.21
76766;BME280;65707;52.362;6.588;2023-12-20T11:58:46;101276.00;;;7.61;90.25
76766;BME280;65707;52.362;6.588;2023-12-20T12:01:14;101290.75;;;7.75;90.99
76766;BME280;65707;52.362;6.588;2023-12-20T12:03:40;101290.47;;;7.78;90.77
76766;BME280;65707;52.362;6.588;2023-12-20T12:06:08;101275.16;;;7.89;90.33
76766;BME280;65707;52.362;6.588;2023-12-20T12:08:35;101276.69;;;8.02;90.61
76766;BME280;65707;52.362;6.588;2023-12-20T12:11:03;101282.47;;;8.07;91.50
76766;BME280;65707;52.362;6.588;2023-12-20T12:13:30;101272.78;;;8.06;90.54
76766;BME280;65707;52.362;6.588;2023-12-20T12:15:59;101260.06;;;8.17;89.73
76766;BME280;65707;52.362;6.588;2023-12-20T12:18:25;101259.13;;;8.18;89.86
76766;BME280;65707;52.362;6.588;2023-12-20T12:21:00;101263.31;;;8.21;89.74
76766;BME280;65707;52.362;6.588;2023-12-20T12:23:27;101260.25;;;8.25;89.59
76766;BME280;65707;52.362;6.588;2023-12-20T12:25:54;101251.94;;;8.09;88.70
76766;BME280;65707;52.362;6.588;2023-12-20T12:28:25;101243.06;;;8.18;88.77
76766;BME280;65707;52.362;6.588;2023-12-20T12:31:07;101251.63;;;8.12;89.16
76766;BME280;65707;52.362;6.588;2023-12-20T12:33:34;101248.56;;;8.07;89.57
76766;BME280;65707;52.362;6.588;2023-12-20T12:36:01;101248.16;;;8.02;90.25
76766;BME280;65707;52.362;6.588;2023-12-20T12:38:32;101243.66;;;8.03;89.30
76766;BME280;65707;52.362;6.588;2023-12-20T12:40:59;101242.53;;;7.96;88.97
76766;BME280;65707;52.362;6.588;2023-12-20T12:43:27;101240.56;;;7.88;89.15
76766;BME280;65707;52.362;6.588;2023-12-20T12:45:54;101240.84;;;7.95;89.93
76766;BME280;65707;52.362;6.588;2023-12-20T12:48:25;101240.56;;;7.98;89.60
76766;BME280;65707;52.362;6.588;2023-12-20T12:50:53;101239.16;;;7.93;89.27
76766;BME280;65707;52.362;6.588;2023-12-20T12:53:24;101220.06;;;7.88;89.41
76766;BME280;65707;52.362;6.588;2023-12-20T12:55:52;101239.72;;;7.87;88.99
76766;BME280;65707;52.362;6.588;2023-12-20T12:58:20;101237.75;;;7.80;89.57
76766;BME280;65707;52.362;6.588;2023-12-20T13:00:48;101227.06;;;7.80;89.96
76766;BME280;65707;52.362;6.588;2023-12-20T13:03:18;101209.91;;;7.82;89.40
76766;BME280;65707;52.362;6.588;2023-12-20T13:05:44;101227.38;;;7.77;89.54